sensor_id;sensor_type;location;lat;lon;timestamp;P1;durP1;ratioP1;P2;durP2;ratioP2
43628;SDS011;56545;48.224;11.678;2022-12-18T00:00:30;51.78;;;26.33;;
43628;SDS011;56545;48.224;11.678;2022-12-18T00:02:56;50.28;;;24.98;;
43628;SDS011;56545;48.224;11.678;2022-12-18T00:05:22;50.67;;;27.20;;
43628;SDS011;56545;48.224;11.678;2022-12-18T00:07:48;49.10;;;25.67;;
43628;SDS011;56545;48.224;11.678;2022-12-18T00:10:14;52.15;;;25.05;;
43628;SDS011;56545;48.224;11.678;2022-12-18T00:12:40;52.35;;;25.67;;
43628;SDS011;56545;48.224;11.678;2022-12-18T00:15:06;50.72;;;25.33;;
43628;SDS011;56545;48.224;11.678;2022-12-18T00:17:32;42.45;;;21.50;;
43628;SDS011;56545;48.224;11.678;2022-12-18T00:19:58;48.10;;;23.58;;
43628;SDS011;56545;48.224;11.678;2022-12-18T00:22:24;47.08;;;24.08;;
43628;SDS011;56545;48.224;11.678;2022-12-18T00:24:50;54.58;;;24.77;;
43628;SDS011;56545;48.224;11.678;2022-12-18T00:27:15;54.63;;;25.00;;
43628;SDS011;56545;48.224;11.678;2022-12-18T00:29:41;50.30;;;23.85;;
43628;SDS011;56545;48.224;11.678;2022-12-18T00:32:07;50.03;;;24.55;;
43628;SDS011;56545;48.224;11.678;2022-12-18T00:34:33;50.95;;;26.27;;
43628;SDS011;56545;48.224;11.678;2022-12-18T00:36:59;54.53;;;25.77;;
43628;SDS011;56545;48.224;11.678;2022-12-18T00:39:25;48.38;;;23.77;;
43628;SDS011;56545;48.224;11.678;2022-12-18T00:41:51;48.92;;;25.77;;
43628;SDS011;56545;48.224;11.678;2022-12-18T00:44:36;53.70;;;26.55;;
43628;SDS011;56545;48.224;11.678;2022-12-18T00:47:01;51.08;;;25.55;;
43628;SDS011;56545;48.224;11.678;2022-12-18T00:49:27;50.35;;;24.92;;
43628;SDS011;56545;48.224;11.678;2022-12-18T00:51:56;49.67;;;25.08;;
43628;SDS011;56545;48.224;11.678;2022-12-18T00:54:22;53.72;;;25.83;;
43628;SDS011;56545;48.224;11.678;2022-12-18T00:56:48;55.53;;;25.73;;
43628;SDS011;56545;48.224;11.678;2022-12-18T00:59:14;42.25;;;20.45;;
43628;SDS011;56545;48.224;11.678;2022-12-18T01:01:40;43.97;;;22.35;;
43628;SDS011;56545;48.224;11.678;2022-12-18T01:04:06;40.70;;;20.60;;
43628;SDS011;56545;48.224;11.678;2022-12-18T01:06:32;41.92;;;21.05;;
43628;SDS011;56545;48.224;11.678;2022-12-18T01:08:58;43.25;;;20.83;;
43628;SDS011;56545;48.224;11.678;2022-12-18T01:11:24;44.45;;;21.05;;
43628;SDS011;56545;48.224;11.678;2022-12-18T01:13:51;45.83;;;22.35;;
43628;SDS011;56545;48.224;11.678;2022-12-18T01:16:18;42.33;;;22.35;;
43628;SDS011;56545;48.224;11.678;2022-12-18T01:18:44;47.13;;;24.48;;
43628;SDS011;56545;48.224;11.678;2022-12-18T01:21:12;43.17;;;23.08;;
43628;SDS011;56545;48.224;11.678;2022-12-18T01:23:39;46.03;;;22.98;;
43628;SDS011;56545;48.224;11.678;2022-12-18T01:26:06;43.38;;;23.02;;
43628;SDS011;56545;48.224;11.678;2022-12-18T01:28:33;43.22;;;22.98;;
43628;SDS011;56545;48.224;11.678;2022-12-18T01:31:09;44.97;;;23.08;;
43628;SDS011;56545;48.224;11.678;2022-12-18T01:33:55;42.22;;;22.92;;
43628;SDS011;56545;48.224;11.678;2022-12-18T01:36:22;51.58;;;24.98;;
43628;SDS011;56545;48.224;11.678;2022-12-18T01:38:53;46.33;;;25.00;;
43628;SDS011;56545;48.224;11.678;2022-12-18T01:41:20;47.15;;;24.27;;
43628;SDS011;56545;48.224;11.678;2022-12-18T01:43:50;49.45;;;25.77;;
43628;SDS011;56545;48.224;11.678;2022-12-18T01:48:53;52.42;;;23.80;;
43628;SDS011;56545;48.224;11.678;2022-12-18T01:51:24;41.30;;;19.48;;
43628;SDS011;56545;48.224;11.678;2022-12-18T01:53:52;51.90;;;26.48;;
43628;SDS011;56545;48.224;11.678;2022-12-18T01:56:18;50.03;;;25.00;;
43628;SDS011;56545;48.224;11.678;2022-12-18T02:01:25;49.97;;;25.27;;
43628;SDS011;56545;48.224;11.678;2022-12-18T02:03:52;47.95;;;25.63;;
43628;SDS011;56545;48.224;11.678;2022-12-18T02:11:44;47.25;;;24.17;;
43628;SDS011;56545;48.224;11.678;2022-12-18T02:14:34;47.63;;;23.55;;
43628;SDS011;56545;48.224;11.678;2022-12-18T02:28:30;45.90;;;23.95;;
43628;SDS011;56545;48.224;11.678;2022-12-18T02:31:01;46.25;;;24.25;;
43628;SDS011;56545;48.224;11.678;2022-12-18T02:33:29;49.33;;;24.60;;
43628;SDS011;56545;48.224;11.678;2022-12-18T02:35:57;51.28;;;24.88;;
43628;SDS011;56545;48.224;11.678;2022-12-18T02:38:24;48.58;;;24.35;;
43628;SDS011;56545;48.224;11.678;2022-12-18T02:40:51;52.45;;;25.58;;
43628;SDS011;56545;48.224;11.678;2022-12-18T02:43:18;50.42;;;25.92;;
43628;SDS011;56545;48.224;11.678;2022-12-18T02:45:48;54.55;;;26.42;;
43628;SDS011;56545;48.224;11.678;2022-12-18T02:48:21;50.45;;;24.70;;
43628;SDS011;56545;48.224;11.678;2022-12-18T02:51:10;52.13;;;26.25;;
43628;SDS011;56545;48.224;11.678;2022-12-18T02:53:53;50.33;;;25.00;;
43628;SDS011;56545;48.224;11.678;2022-12-18T02:56:29;49.67;;;25.67;;
43628;SDS011;56545;48.224;11.678;2022-12-18T02:59:05;47.28;;;24.52;;
43628;SDS011;56545;48.224;11.678;2022-12-18T03:01:36;46.70;;;24.02;;
43628;SDS011;56545;48.224;11.678;2022-12-18T03:04:26;45.85;;;23.83;;
43628;SDS011;56545;48.224;11.678;2022-12-18T03:06:58;46.88;;;23.77;;
43628;SDS011;56545;48.224;11.678;2022-12-18T03:09:33;46.70;;;24.08;;
43628;SDS011;56545;48.224;11.678;2022-12-18T03:12:14;46.90;;;22.73;;
43628;SDS011;56545;48.224;11.678;2022-12-18T03:14:49;47.53;;;22.92;;
43628;SDS011;56545;48.224;11.678;2022-12-18T03:17:22;49.83;;;24.10;;
43628;SDS011;56545;48.224;11.678;2022-12-18T03:19:51;45.95;;;23.48;;
43628;SDS011;56545;48.224;11.678;2022-12-18T03:22:19;44.70;;;22.85;;
43628;SDS011;56545;48.224;11.678;2022-12-18T03:24:45;47.38;;;24.48;;
43628;SDS011;56545;48.224;11.678;2022-12-18T03:27:13;46.03;;;23.30;;
43628;SDS011;56545;48.224;11.678;2022-12-18T03:29:44;45.65;;;23.67;;
43628;SDS011;56545;48.224;11.678;2022-12-18T03:32:28;47.92;;;23.67;;
43628;SDS011;56545;48.224;11.678;2022-12-18T03:34:58;42.50;;;22.50;;
43628;SDS011;56545;48.224;11.678;2022-12-18T03:37:30;43.45;;;22.52;;
43628;SDS011;56545;48.224;11.678;2022-12-18T03:39:56;42.50;;;22.20;;
43628;SDS011;56545;48.224;11.678;2022-12-18T03:42:37;42.42;;;21.77;;
43628;SDS011;56545;48.224;11.678;2022-12-18T03:45:26;43.40;;;22.00;;
43628;SDS011;56545;48.224;11.678;2022-12-18T03:48:20;41.92;;;21.00;;
43628;SDS011;56545;48.224;11.678;2022-12-18T03:51:05;41.22;;;21.83;;
43628;SDS011;56545;48.224;11.678;2022-12-18T03:53:44;41.67;;;21.30;;
43628;SDS011;56545;48.224;11.678;2022-12-18T03:56:16;41.22;;;20.90;;
43628;SDS011;56545;48.224;11.678;2022-12-18T03:58:45;39.15;;;20.92;;
43628;SDS011;56545;48.224;11.678;2022-12-18T04:01:13;42.38;;;21.27;;
43628;SDS011;56545;48.224;11.678;2022-12-18T04:03:41;39.88;;;20.65;;
43628;SDS011;56545;48.224;11.678;2022-12-18T04:06:08;41.90;;;20.58;;
43628;SDS011;56545;48.224;11.678;2022-12-18T04:08:36;39.72;;;20.08;;
43628;SDS011;56545;48.224;11.678;2022-12-18T04:11:02;41.92;;;20.35;;
43628;SDS011;56545;48.224;11.678;2022-12-18T04:13:28;37.42;;;19.55;;
43628;SDS011;56545;48.224;11.678;2022-12-18T04:15:59;36.92;;;20.05;;
43628;SDS011;56545;48.224;11.678;2022-12-18T04:18:26;37.33;;;19.50;;
43628;SDS011;56545;48.224;11.678;2022-12-18T04:20:52;40.03;;;19.60;;
43628;SDS011;56545;48.224;11.678;2022-12-18T04:23:18;40.80;;;20.13;;
43628;SDS011;56545;48.224;11.678;2022-12-18T04:25:44;35.08;;;18.33;;
43628;SDS011;56545;48.224;11.678;2022-12-18T04:28:10;38.63;;;19.40;;
43628;SDS011;56545;48.224;11.678;2022-12-18T04:30:36;38.25;;;19.10;;
43628;SDS011;56545;48.224;11.678;2022-12-18T04:33:02;41.40;;;19.48;;
43628;SDS011;56545;48.224;11.678;2022-12-18T04:35:27;35.10;;;18.75;;
43628;SDS011;56545;48.224;11.678;2022-12-18T04:37:53;36.83;;;18.33;;
43628;SDS011;56545;48.224;11.678;2022-12-18T04:40:19;32.85;;;18.40;;
43628;SDS011;56545;48.224;11.678;2022-12-18T04:42:46;37.58;;;19.77;;
43628;SDS011;56545;48.224;11.678;2022-12-18T04:45:12;35.03;;;18.17;;
43628;SDS011;56545;48.224;11.678;2022-12-18T04:47:38;36.33;;;18.30;;
43628;SDS011;56545;48.224;11.678;2022-12-18T04:50:04;36.53;;;18.38;;
43628;SDS011;56545;48.224;11.678;2022-12-18T04:52:33;39.70;;;20.27;;
43628;SDS011;56545;48.224;11.678;2022-12-18T04:54:59;39.13;;;19.65;;
43628;SDS011;56545;48.224;11.678;2022-12-18T04:57:24;36.17;;;18.33;;
43628;SDS011;56545;48.224;11.678;2022-12-18T04:59:51;36.58;;;19.42;;
43628;SDS011;56545;48.224;11.678;2022-12-18T05:02:16;38.03;;;19.25;;
43628;SDS011;56545;48.224;11.678;2022-12-18T05:04:42;38.67;;;19.90;;
43628;SDS011;56545;48.224;11.678;2022-12-18T05:07:08;37.28;;;19.63;;
43628;SDS011;56545;48.224;11.678;2022-12-18T05:09:34;36.08;;;17.90;;
43628;SDS011;56545;48.224;11.678;2022-12-18T05:12:00;38.70;;;20.50;;
43628;SDS011;56545;48.224;11.678;2022-12-18T05:14:26;39.95;;;19.77;;
43628;SDS011;56545;48.224;11.678;2022-12-18T05:16:54;41.13;;;20.58;;
43628;SDS011;56545;48.224;11.678;2022-12-18T05:19:20;37.80;;;19.75;;
43628;SDS011;56545;48.224;11.678;2022-12-18T05:21:46;38.03;;;20.42;;
43628;SDS011;56545;48.224;11.678;2022-12-18T05:24:12;39.42;;;19.55;;
43628;SDS011;56545;48.224;11.678;2022-12-18T05:26:38;40.15;;;19.80;;
43628;SDS011;56545;48.224;11.678;2022-12-18T05:29:03;37.00;;;19.58;;
43628;SDS011;56545;48.224;11.678;2022-12-18T05:31:29;40.33;;;19.52;;
43628;SDS011;56545;48.224;11.678;2022-12-18T05:33:55;37.38;;;20.00;;
43628;SDS011;56545;48.224;11.678;2022-12-18T05:36:22;37.53;;;19.52;;
43628;SDS011;56545;48.224;11.678;2022-12-18T05:38:48;38.33;;;18.92;;
43628;SDS011;56545;48.224;11.678;2022-12-18T05:41:14;40.78;;;19.00;;
43628;SDS011;56545;48.224;11.678;2022-12-18T05:43:40;35.38;;;18.88;;
43628;SDS011;56545;48.224;11.678;2022-12-18T05:46:07;38.65;;;20.60;;
43628;SDS011;56545;48.224;11.678;2022-12-18T05:48:36;34.83;;;18.55;;
43628;SDS011;56545;48.224;11.678;2022-12-18T05:51:06;37.00;;;19.13;;
43628;SDS011;56545;48.224;11.678;2022-12-18T05:53:34;35.42;;;18.38;;
43628;SDS011;56545;48.224;11.678;2022-12-18T05:56:02;35.33;;;18.15;;
43628;SDS011;56545;48.224;11.678;2022-12-18T05:58:29;35.67;;;18.80;;
43628;SDS011;56545;48.224;11.678;2022-12-18T06:00:55;34.20;;;18.40;;
43628;SDS011;56545;48.224;11.678;2022-12-18T06:03:21;35.42;;;18.17;;
43628;SDS011;56545;48.224;11.678;2022-12-18T06:05:47;35.33;;;18.88;;
43628;SDS011;56545;48.224;11.678;2022-12-18T06:08:13;37.85;;;19.40;;
43628;SDS011;56545;48.224;11.678;2022-12-18T06:10:39;32.80;;;17.80;;
43628;SDS011;56545;48.224;11.678;2022-12-18T06:13:06;38.10;;;19.55;;
43628;SDS011;56545;48.224;11.678;2022-12-18T06:15:35;33.90;;;18.60;;
43628;SDS011;56545;48.224;11.678;2022-12-18T06:18:01;37.90;;;18.88;;
43628;SDS011;56545;48.224;11.678;2022-12-18T06:20:30;35.17;;;18.17;;
43628;SDS011;56545;48.224;11.678;2022-12-18T06:22:56;38.10;;;19.88;;
43628;SDS011;56545;48.224;11.678;2022-12-18T06:25:22;37.08;;;18.98;;
43628;SDS011;56545;48.224;11.678;2022-12-18T06:27:48;34.55;;;18.60;;
43628;SDS011;56545;48.224;11.678;2022-12-18T06:30:14;35.17;;;18.75;;
43628;SDS011;56545;48.224;11.678;2022-12-18T06:32:40;34.97;;;18.58;;
43628;SDS011;56545;48.224;11.678;2022-12-18T06:35:06;35.78;;;17.50;;
43628;SDS011;56545;48.224;11.678;2022-12-18T06:37:32;34.40;;;18.85;;
43628;SDS011;56545;48.224;11.678;2022-12-18T06:39:58;39.63;;;20.13;;
43628;SDS011;56545;48.224;11.678;2022-12-18T06:42:25;36.60;;;18.95;;
43628;SDS011;56545;48.224;11.678;2022-12-18T06:44:51;38.15;;;19.15;;
43628;SDS011;56545;48.224;11.678;2022-12-18T06:47:17;34.50;;;18.23;;
43628;SDS011;56545;48.224;11.678;2022-12-18T06:49:43;36.08;;;18.80;;
43628;SDS011;56545;48.224;11.678;2022-12-18T06:52:09;37.47;;;19.23;;
43628;SDS011;56545;48.224;11.678;2022-12-18T06:54:35;38.15;;;18.92;;
43628;SDS011;56545;48.224;11.678;2022-12-18T06:57:01;38.75;;;19.67;;
43628;SDS011;56545;48.224;11.678;2022-12-18T06:59:26;35.03;;;17.83;;
43628;SDS011;56545;48.224;11.678;2022-12-18T07:01:52;38.88;;;19.17;;
43628;SDS011;56545;48.224;11.678;2022-12-18T07:04:18;37.10;;;18.67;;
43628;SDS011;56545;48.224;11.678;2022-12-18T07:06:44;38.22;;;19.17;;
43628;SDS011;56545;48.224;11.678;2022-12-18T07:09:10;38.42;;;19.70;;
43628;SDS011;56545;48.224;11.678;2022-12-18T07:11:36;37.55;;;18.70;;
43628;SDS011;56545;48.224;11.678;2022-12-18T07:14:02;37.30;;;17.70;;
43628;SDS011;56545;48.224;11.678;2022-12-18T07:16:28;35.83;;;17.88;;
43628;SDS011;56545;48.224;11.678;2022-12-18T07:18:54;35.00;;;17.75;;
43628;SDS011;56545;48.224;11.678;2022-12-18T07:21:22;40.00;;;19.38;;
43628;SDS011;56545;48.224;11.678;2022-12-18T07:23:49;37.15;;;18.13;;
43628;SDS011;56545;48.224;11.678;2022-12-18T07:26:16;35.58;;;18.67;;
43628;SDS011;56545;48.224;11.678;2022-12-18T07:28:43;37.25;;;18.10;;
43628;SDS011;56545;48.224;11.678;2022-12-18T07:31:10;33.95;;;17.75;;
43628;SDS011;56545;48.224;11.678;2022-12-18T07:33:40;36.38;;;18.20;;
43628;SDS011;56545;48.224;11.678;2022-12-18T07:36:07;35.53;;;18.13;;
43628;SDS011;56545;48.224;11.678;2022-12-18T07:38:34;38.22;;;19.50;;
43628;SDS011;56545;48.224;11.678;2022-12-18T07:41:01;37.92;;;19.55;;
43628;SDS011;56545;48.224;11.678;2022-12-18T07:43:28;37.42;;;18.27;;
43628;SDS011;56545;48.224;11.678;2022-12-18T07:45:54;36.03;;;18.42;;
43628;SDS011;56545;48.224;11.678;2022-12-18T07:48:20;35.30;;;17.73;;
43628;SDS011;56545;48.224;11.678;2022-12-18T07:50:46;33.70;;;18.15;;
43628;SDS011;56545;48.224;11.678;2022-12-18T07:53:12;35.88;;;18.17;;
43628;SDS011;56545;48.224;11.678;2022-12-18T07:55:39;33.60;;;17.67;;
43628;SDS011;56545;48.224;11.678;2022-12-18T07:58:06;33.60;;;17.58;;
43628;SDS011;56545;48.224;11.678;2022-12-18T08:00:33;34.67;;;17.92;;
43628;SDS011;56545;48.224;11.678;2022-12-18T08:02:59;34.90;;;17.42;;
43628;SDS011;56545;48.224;11.678;2022-12-18T08:05:25;35.08;;;18.48;;
43628;SDS011;56545;48.224;11.678;2022-12-18T08:07:51;32.80;;;17.20;;
43628;SDS011;56545;48.224;11.678;2022-12-18T08:10:18;32.55;;;17.50;;
43628;SDS011;56545;48.224;11.678;2022-12-18T08:12:44;34.90;;;17.88;;
43628;SDS011;56545;48.224;11.678;2022-12-18T08:15:13;33.25;;;17.55;;
43628;SDS011;56545;48.224;11.678;2022-12-18T08:17:39;32.05;;;16.35;;
43628;SDS011;56545;48.224;11.678;2022-12-18T08:20:05;34.80;;;17.30;;
43628;SDS011;56545;48.224;11.678;2022-12-18T08:22:33;35.85;;;17.70;;
43628;SDS011;56545;48.224;11.678;2022-12-18T08:25:00;35.55;;;17.20;;
43628;SDS011;56545;48.224;11.678;2022-12-18T08:27:27;36.00;;;17.00;;
43628;SDS011;56545;48.224;11.678;2022-12-18T08:29:52;33.97;;;17.88;;
43628;SDS011;56545;48.224;11.678;2022-12-18T08:32:18;31.55;;;16.50;;
43628;SDS011;56545;48.224;11.678;2022-12-18T08:34:44;41.95;;;19.77;;
43628;SDS011;56545;48.224;11.678;2022-12-18T08:37:10;32.45;;;16.80;;
43628;SDS011;56545;48.224;11.678;2022-12-18T08:39:36;33.83;;;17.08;;
43628;SDS011;56545;48.224;11.678;2022-12-18T08:42:02;32.08;;;15.98;;
43628;SDS011;56545;48.224;11.678;2022-12-18T08:44:47;33.95;;;17.35;;
43628;SDS011;56545;48.224;11.678;2022-12-18T08:47:13;33.50;;;16.85;;
43628;SDS011;56545;48.224;11.678;2022-12-18T08:49:39;31.63;;;16.27;;
43628;SDS011;56545;48.224;11.678;2022-12-18T08:52:05;30.67;;;17.08;;
43628;SDS011;56545;48.224;11.678;2022-12-18T08:54:31;32.03;;;15.82;;
43628;SDS011;56545;48.224;11.678;2022-12-18T08:56:57;29.85;;;15.85;;
43628;SDS011;56545;48.224;11.678;2022-12-18T08:59:23;30.85;;;16.10;;
43628;SDS011;56545;48.224;11.678;2022-12-18T09:01:49;29.42;;;15.70;;
43628;SDS011;56545;48.224;11.678;2022-12-18T09:04:15;30.85;;;15.70;;
43628;SDS011;56545;48.224;11.678;2022-12-18T09:06:41;29.60;;;15.77;;
43628;SDS011;56545;48.224;11.678;2022-12-18T09:09:07;29.33;;;15.20;;
43628;SDS011;56545;48.224;11.678;2022-12-18T09:11:34;28.67;;;14.35;;
43628;SDS011;56545;48.224;11.678;2022-12-18T09:14:00;29.52;;;15.38;;
43628;SDS011;56545;48.224;11.678;2022-12-18T09:16:27;27.75;;;14.63;;
43628;SDS011;56545;48.224;11.678;2022-12-18T09:18:54;29.48;;;14.70;;
43628;SDS011;56545;48.224;11.678;2022-12-18T09:21:24;30.40;;;14.70;;
43628;SDS011;56545;48.224;11.678;2022-12-18T09:23:53;26.50;;;12.95;;
43628;SDS011;56545;48.224;11.678;2022-12-18T09:26:20;32.55;;;15.95;;
43628;SDS011;56545;48.224;11.678;2022-12-18T09:28:47;29.58;;;14.88;;
43628;SDS011;56545;48.224;11.678;2022-12-18T09:31:16;29.92;;;14.65;;
43628;SDS011;56545;48.224;11.678;2022-12-18T09:33:44;28.58;;;15.00;;
43628;SDS011;56545;48.224;11.678;2022-12-18T09:36:14;30.33;;;16.02;;
43628;SDS011;56545;48.224;11.678;2022-12-18T09:38:41;34.33;;;17.40;;
43628;SDS011;56545;48.224;11.678;2022-12-18T09:41:22;36.75;;;18.25;;
43628;SDS011;56545;48.224;11.678;2022-12-18T09:44:52;32.85;;;17.23;;
43628;SDS011;56545;48.224;11.678;2022-12-18T09:49:52;33.85;;;16.95;;
43628;SDS011;56545;48.224;11.678;2022-12-18T09:57:55;32.10;;;15.48;;
43628;SDS011;56545;48.224;11.678;2022-12-18T10:00:26;34.13;;;17.30;;
43628;SDS011;56545;48.224;11.678;2022-12-18T10:02:53;29.77;;;16.50;;
43628;SDS011;56545;48.224;11.678;2022-12-18T10:05:37;34.70;;;17.23;;
43628;SDS011;56545;48.224;11.678;2022-12-18T10:08:33;34.15;;;16.95;;
43628;SDS011;56545;48.224;11.678;2022-12-18T10:13:54;31.98;;;15.93;;
43628;SDS011;56545;48.224;11.678;2022-12-18T10:27:39;33.67;;;16.52;;
43628;SDS011;56545;48.224;11.678;2022-12-18T10:30:39;32.65;;;16.65;;
43628;SDS011;56545;48.224;11.678;2022-12-18T10:33:00;31.73;;;15.30;;
43628;SDS011;56545;48.224;11.678;2022-12-18T10:35:29;32.45;;;16.30;;
43628;SDS011;56545;48.224;11.678;2022-12-18T10:37:59;32.28;;;16.08;;
43628;SDS011;56545;48.224;11.678;2022-12-18T10:40:26;34.05;;;16.55;;
43628;SDS011;56545;48.224;11.678;2022-12-18T10:43:14;30.27;;;14.70;;
43628;SDS011;56545;48.224;11.678;2022-12-18T10:45:39;29.30;;;15.15;;
43628;SDS011;56545;48.224;11.678;2022-12-18T10:48:17;30.55;;;16.33;;
43628;SDS011;56545;48.224;11.678;2022-12-18T10:50:47;30.88;;;15.75;;
43628;SDS011;56545;48.224;11.678;2022-12-18T10:53:19;45.67;;;24.75;;
43628;SDS011;56545;48.224;11.678;2022-12-18T10:55:50;32.13;;;17.40;;
43628;SDS011;56545;48.224;11.678;2022-12-18T11:01:06;30.80;;;15.20;;
43628;SDS011;56545;48.224;11.678;2022-12-18T11:03:46;29.33;;;15.18;;
43628;SDS011;56545;48.224;11.678;2022-12-18T11:06:16;28.08;;;15.38;;
43628;SDS011;56545;48.224;11.678;2022-12-18T11:08:56;28.70;;;14.73;;
43628;SDS011;56545;48.224;11.678;2022-12-18T11:11:24;29.52;;;14.20;;
43628;SDS011;56545;48.224;11.678;2022-12-18T11:14:13;30.80;;;15.98;;
43628;SDS011;56545;48.224;11.678;2022-12-18T11:16:44;25.88;;;13.82;;
43628;SDS011;56545;48.224;11.678;2022-12-18T11:21:39;29.85;;;15.02;;
43628;SDS011;56545;48.224;11.678;2022-12-18T11:24:07;26.33;;;14.65;;
43628;SDS011;56545;48.224;11.678;2022-12-18T11:26:46;27.33;;;14.25;;
43628;SDS011;56545;48.224;11.678;2022-12-18T11:29:16;27.23;;;14.63;;
43628;SDS011;56545;48.224;11.678;2022-12-18T11:31:43;27.70;;;15.00;;
43628;SDS011;56545;48.224;11.678;2022-12-18T11:36:48;24.20;;;13.00;;
43628;SDS011;56545;48.224;11.678;2022-12-18T11:39:18;24.80;;;13.40;;
43628;SDS011;56545;48.224;11.678;2022-12-18T11:41:50;24.80;;;13.30;;
43628;SDS011;56545;48.224;11.678;2022-12-18T11:53:08;26.40;;;12.73;;
43628;SDS011;56545;48.224;11.678;2022-12-18T12:01:03;26.63;;;13.98;;
43628;SDS011;56545;48.224;11.678;2022-12-18T12:09:34;28.48;;;14.73;;
43628;SDS011;56545;48.224;11.678;2022-12-18T12:15:05;28.90;;;16.02;;
43628;SDS011;56545;48.224;11.678;2022-12-18T12:20:25;29.98;;;15.15;;
43628;SDS011;56545;48.224;11.678;2022-12-18T12:25:57;28.75;;;15.57;;
43628;SDS011;56545;48.224;11.678;2022-12-18T12:28:36;28.98;;;14.68;;
43628;SDS011;56545;48.224;11.678;2022-12-18T12:34:00;26.15;;;14.13;;
43628;SDS011;56545;48.224;11.678;2022-12-18T12:39:34;27.30;;;14.75;;
43628;SDS011;56545;48.224;11.678;2022-12-18T12:42:05;24.02;;;12.88;;
43628;SDS011;56545;48.224;11.678;2022-12-18T12:45:00;28.95;;;14.90;;
43628;SDS011;56545;48.224;11.678;2022-12-18T12:47:31;26.45;;;14.13;;
43628;SDS011;56545;48.224;11.678;2022-12-18T12:50:11;25.92;;;14.00;;
43628;SDS011;56545;48.224;11.678;2022-12-18T12:52:44;30.48;;;15.30;;
43628;SDS011;56545;48.224;11.678;2022-12-18T12:55:16;29.17;;;15.35;;
43628;SDS011;56545;48.224;11.678;2022-12-18T13:03:33;29.70;;;15.13;;
43628;SDS011;56545;48.224;11.678;2022-12-18T13:06:13;32.88;;;16.20;;
43628;SDS011;56545;48.224;11.678;2022-12-18T13:09:01;31.13;;;16.77;;
43628;SDS011;56545;48.224;11.678;2022-12-18T13:11:49;30.42;;;15.90;;
43628;SDS011;56545;48.224;11.678;2022-12-18T13:14:37;29.17;;;16.00;;
43628;SDS011;56545;48.224;11.678;2022-12-18T13:17:14;30.08;;;15.50;;
43628;SDS011;56545;48.224;11.678;2022-12-18T13:19:43;29.05;;;15.45;;
43628;SDS011;56545;48.224;11.678;2022-12-18T13:22:22;35.45;;;17.00;;
43628;SDS011;56545;48.224;11.678;2022-12-18T13:24:53;35.20;;;18.85;;
43628;SDS011;56545;48.224;11.678;2022-12-18T13:30:11;30.08;;;17.10;;
43628;SDS011;56545;48.224;11.678;2022-12-18T13:41:00;31.80;;;16.85;;
43628;SDS011;56545;48.224;11.678;2022-12-18T13:49:03;33.85;;;17.02;;
43628;SDS011;56545;48.224;11.678;2022-12-18T13:51:44;33.08;;;17.77;;
43628;SDS011;56545;48.224;11.678;2022-12-18T13:56:57;32.70;;;18.50;;
43628;SDS011;56545;48.224;11.678;2022-12-18T13:59:24;33.90;;;18.75;;
43628;SDS011;56545;48.224;11.678;2022-12-18T14:01:58;31.85;;;18.45;;
43628;SDS011;56545;48.224;11.678;2022-12-18T14:04:33;33.67;;;18.38;;
43628;SDS011;56545;48.224;11.678;2022-12-18T14:07:04;32.25;;;17.52;;
43628;SDS011;56545;48.224;11.678;2022-12-18T14:09:35;34.83;;;17.63;;
43628;SDS011;56545;48.224;11.678;2022-12-18T14:12:05;34.00;;;17.27;;
43628;SDS011;56545;48.224;11.678;2022-12-18T14:14:55;30.70;;;17.80;;
43628;SDS011;56545;48.224;11.678;2022-12-18T14:17:21;33.50;;;17.55;;
43628;SDS011;56545;48.224;11.678;2022-12-18T14:19:48;30.52;;;17.58;;
43628;SDS011;56545;48.224;11.678;2022-12-18T14:22:19;34.40;;;18.00;;
43628;SDS011;56545;48.224;11.678;2022-12-18T14:25:05;32.75;;;18.25;;
43628;SDS011;56545;48.224;11.678;2022-12-18T14:27:43;34.33;;;18.25;;
43628;SDS011;56545;48.224;11.678;2022-12-18T14:30:35;33.08;;;18.30;;
43628;SDS011;56545;48.224;11.678;2022-12-18T14:33:12;36.05;;;18.85;;
43628;SDS011;56545;48.224;11.678;2022-12-18T14:35:51;44.25;;;24.08;;
43628;SDS011;56545;48.224;11.678;2022-12-18T14:40:56;32.17;;;17.90;;
43628;SDS011;56545;48.224;11.678;2022-12-18T14:43:45;31.48;;;16.45;;
43628;SDS011;56545;48.224;11.678;2022-12-18T14:48:58;33.58;;;17.67;;
43628;SDS011;56545;48.224;11.678;2022-12-18T14:51:51;30.30;;;15.80;;
43628;SDS011;56545;48.224;11.678;2022-12-18T14:54:27;29.60;;;14.75;;
43628;SDS011;56545;48.224;11.678;2022-12-18T14:56:59;27.27;;;15.27;;
43628;SDS011;56545;48.224;11.678;2022-12-18T14:59:45;30.65;;;15.68;;
43628;SDS011;56545;48.224;11.678;2022-12-18T15:02:24;29.85;;;15.55;;
43628;SDS011;56545;48.224;11.678;2022-12-18T15:05:05;30.45;;;15.57;;
43628;SDS011;56545;48.224;11.678;2022-12-18T15:07:44;28.33;;;15.50;;
43628;SDS011;56545;48.224;11.678;2022-12-18T15:20:41;28.45;;;14.77;;
43628;SDS011;56545;48.224;11.678;2022-12-18T15:23:23;28.45;;;15.55;;
43628;SDS011;56545;48.224;11.678;2022-12-18T15:26:04;27.75;;;15.07;;
43628;SDS011;56545;48.224;11.678;2022-12-18T15:33:32;28.25;;;16.33;;
43628;SDS011;56545;48.224;11.678;2022-12-18T15:36:01;29.35;;;16.05;;
43628;SDS011;56545;48.224;11.678;2022-12-18T15:38:38;29.02;;;15.80;;
43628;SDS011;56545;48.224;11.678;2022-12-18T15:41:04;30.13;;;16.70;;
43628;SDS011;56545;48.224;11.678;2022-12-18T15:43:30;31.85;;;16.73;;
43628;SDS011;56545;48.224;11.678;2022-12-18T15:46:06;29.90;;;15.48;;
43628;SDS011;56545;48.224;11.678;2022-12-18T15:48:39;31.02;;;16.63;;
43628;SDS011;56545;48.224;11.678;2022-12-18T15:51:09;30.45;;;16.35;;
43628;SDS011;56545;48.224;11.678;2022-12-18T15:53:56;29.15;;;15.63;;
43628;SDS011;56545;48.224;11.678;2022-12-18T15:56:25;30.83;;;16.15;;
43628;SDS011;56545;48.224;11.678;2022-12-18T15:59:11;28.27;;;15.25;;
43628;SDS011;56545;48.224;11.678;2022-12-18T16:01:39;30.38;;;15.75;;
43628;SDS011;56545;48.224;11.678;2022-12-18T16:04:08;30.88;;;15.85;;
43628;SDS011;56545;48.224;11.678;2022-12-18T16:06:38;27.08;;;14.20;;
43628;SDS011;56545;48.224;11.678;2022-12-18T16:09:05;29.23;;;15.45;;
43628;SDS011;56545;48.224;11.678;2022-12-18T16:11:31;27.85;;;15.25;;
43628;SDS011;56545;48.224;11.678;2022-12-18T16:16:40;31.60;;;16.10;;
43628;SDS011;56545;48.224;11.678;2022-12-18T16:19:06;30.15;;;15.38;;
43628;SDS011;56545;48.224;11.678;2022-12-18T16:21:32;31.63;;;16.40;;
43628;SDS011;56545;48.224;11.678;2022-12-18T16:23:58;31.10;;;16.42;;
43628;SDS011;56545;48.224;11.678;2022-12-18T16:26:24;32.30;;;16.38;;
43628;SDS011;56545;48.224;11.678;2022-12-18T16:28:50;32.58;;;16.50;;
43628;SDS011;56545;48.224;11.678;2022-12-18T16:31:16;31.77;;;17.38;;
43628;SDS011;56545;48.224;11.678;2022-12-18T16:33:42;35.10;;;17.65;;
43628;SDS011;56545;48.224;11.678;2022-12-18T16:36:07;34.38;;;17.70;;
43628;SDS011;56545;48.224;11.678;2022-12-18T16:38:33;31.60;;;17.00;;
43628;SDS011;56545;48.224;11.678;2022-12-18T16:40:59;34.40;;;17.50;;